Notice: Undefined index: in /volume1/web/weather2/wsIconUrl.php on line 132 WARNING - Change wsUserSettings.php: $SITE["topfolder"] from : weather2/ to: ./

Leobendorf more information Leobendorf


Thunder radar more information blitzortung!


Rain radar  rain snow radar


Besuchen Sie unsere anderen Wetter Stationen:

Template documentation
and downloads

And another site



Es ist keine erhöhte Aufmerksamkeit aufgrund des Wetters notwendig.    Es gibt keine Warnungen.

Weather Underground History Seite Text

Tägliche Zusammenfassung für September 26, 2017 Einheiten:  metrisch    Englisch   Beide
« Vorherige Tag
nächste Tag »
Tägliche Wöchentliche Monatliche Jährlich Custom
  aktuell: Hoch: Wenig: Durchchnittswerte:
Temperatur: 14.8 °C 14.8 °C 7.6 °C 10.7 °C
Taupunkt: 11.9 °C 12.2 °C 6.1 °C 9.2 °C
Luftfeuchte: 83 % 92 % 83 % 91 %
Windgeschwindigkeit: 3.2 km/h 11.3 km/h 0.0 km/h 1.4 km/h
Windböen: 14.5 km/h 14.5 km/h - -
Wind:East - - ESE
Luftdruck: 1024.9 hPa 1024.9 hPa 1023.2 hPa -
Niederschlag: 0.3 mm      
Historical Graphs
 
 
Tabular Data für September 26, 2017
Zeit Temperatur Taupunkt Luftdruck Wind Windgeschwindigkeit Windböen Luftfeuchte Niederschlag Rate (pro Stunde)
00:02 7.6 °C 6.1 °C 1023.9 hPa Calm     90 % 0.0 mm
00:07 7.6 °C 6.2 °C 1023.9 hPa ENE 3.2 km/h   91 % 0.0 mm
00:12 7.6 °C 6.2 °C 1023.9 hPa Calm   4.8 km/h 91 % 0.0 mm
00:17 7.6 °C 6.1 °C 1023.9 hPa Calm   4.8 km/h 90 % 0.0 mm
00:22 7.6 °C 6.1 °C 1023.9 hPa Calm   4.8 km/h 90 % 0.0 mm
00:27 7.8 °C 6.4 °C 1023.9 hPa Calm   4.8 km/h 91 % 0.0 mm
00:32 8.1 °C 6.7 °C 1023.6 hPa Calm     91 % 0.0 mm
00:37 8.3 °C 6.9 °C 1023.6 hPa Calm     91 % 0.0 mm
00:42 8.5 °C 7.1 °C 1023.6 hPa Calm     91 % 0.0 mm
00:47 8.6 °C 7.2 °C 1023.9 hPa Calm     91 % 0.0 mm
00:52 8.7 °C 7.3 °C 1023.9 hPa Calm     91 % 0.0 mm
00:57 8.8 °C 7.4 °C 1023.6 hPa Calm     91 % 0.0 mm
01:02 8.9 °C 7.5 °C 1023.6 hPa Calm     91 % 0.0 mm
01:07 9.3 °C 7.9 °C 1023.6 hPa Calm     91 % 0.0 mm
01:12 9.5 °C 8.1 °C 1023.6 hPa Calm     91 % 0.0 mm
01:17 9.7 °C 8.3 °C 1023.6 hPa Calm     91 % 0.0 mm
01:22 9.7 °C 8.3 °C 1023.9 hPa Calm     91 % 0.0 mm
01:27 9.6 °C 8.2 °C 1023.6 hPa Calm     91 % 0.0 mm
01:32 9.8 °C 8.4 °C 1023.6 hPa Calm     91 % 0.0 mm
01:37 9.7 °C 8.3 °C 1023.6 hPa Calm     91 % 0.0 mm
01:42 9.7 °C 8.3 °C 1023.6 hPa Calm     91 % 0.0 mm
01:47 9.7 °C 8.3 °C 1023.6 hPa Calm     91 % 0.0 mm
01:52 9.7 °C 8.3 °C 1023.6 hPa Calm     91 % 0.0 mm
01:57 9.6 °C 8.2 °C 1023.6 hPa Calm     91 % 0.0 mm
02:02 9.6 °C 8.2 °C 1023.6 hPa Calm     91 % 0.0 mm
02:07 9.6 °C 8.2 °C 1023.6 hPa Calm     91 % 0.0 mm
02:12 9.7 °C 8.3 °C 1023.6 hPa Calm     91 % 0.0 mm
02:18 9.7 °C 8.3 °C 1023.9 hPa Calm     91 % 0.0 mm
02:23 9.6 °C 8.2 °C 1023.6 hPa Calm     91 % 0.0 mm
02:28 9.6 °C 8.2 °C 1023.6 hPa Calm     91 % 0.0 mm
02:33 9.6 °C 8.2 °C 1023.6 hPa Calm     91 % 0.0 mm
02:38 9.7 °C 8.3 °C 1023.6 hPa Calm     91 % 0.0 mm
02:43 9.7 °C 8.3 °C 1023.6 hPa Calm     91 % 0.0 mm
02:48 9.7 °C 8.3 °C 1023.6 hPa Calm     91 % 0.0 mm
02:53 9.7 °C 8.3 °C 1023.6 hPa Calm     91 % 0.0 mm
02:58 9.7 °C 8.3 °C 1023.6 hPa Calm     91 % 0.0 mm
03:03 9.7 °C 8.3 °C 1023.6 hPa Calm     91 % 0.0 mm
03:08 9.8 °C 8.4 °C 1023.6 hPa Calm     91 % 0.0 mm
03:13 9.8 °C 8.4 °C 1023.6 hPa Calm     91 % 0.0 mm
03:18 9.8 °C 8.4 °C 1023.6 hPa Calm     91 % 0.0 mm
03:23 9.8 °C 8.4 °C 1023.6 hPa Calm     91 % 0.0 mm
03:28 9.8 °C 8.4 °C 1023.6 hPa Calm     91 % 0.0 mm
03:29 9.8 °C 8.4 °C 1023.6 hPa Calm     91 % 0.0 mm
03:34 9.8 °C 8.4 °C 1023.6 hPa Calm     91 % 0.0 mm
03:39 9.9 °C 8.5 °C 1023.6 hPa Calm     91 % 0.0 mm
03:44 9.9 °C 8.5 °C 1023.6 hPa Calm   1.6 km/h 91 % 0.3 mm
03:49 9.9 °C 8.5 °C 1023.6 hPa Calm   1.6 km/h 91 % 0.3 mm
03:54 9.9 °C 8.5 °C 1023.6 hPa Calm     91 % 0.3 mm
03:59 10.0 °C 8.6 °C 1023.6 hPa Calm     91 % 0.3 mm
04:04 10.2 °C 8.8 °C 1023.6 hPa Calm     91 % 0.3 mm
04:09 10.4 °C 9.0 °C 1023.6 hPa Calm     91 % 0.3 mm
04:14 10.5 °C 9.1 °C 1023.6 hPa Calm     91 % 0.3 mm
04:19 10.6 °C 9.2 °C 1023.6 hPa Calm     91 % 0.3 mm
04:21 10.7 °C 9.3 °C 1023.6 hPa Calm     91 % 0.3 mm
04:26 10.7 °C 9.3 °C 1023.6 hPa Calm     91 % 0.3 mm
04:31 10.7 °C 9.3 °C 1023.2 hPa Calm     91 % 0.3 mm
04:36 10.7 °C 9.3 °C 1023.2 hPa Calm     91 % 0.0 mm
04:41 10.8 °C 9.4 °C 1023.2 hPa Calm     91 % 0.0 mm
04:46 10.8 °C 9.4 °C 1023.2 hPa Calm   4.8 km/h 91 % 0.0 mm
04:51 10.8 °C 9.4 °C 1023.2 hPa ENE 4.8 km/h 4.8 km/h 91 % 0.0 mm
04:56 10.8 °C 9.4 °C 1023.2 hPa ENE 3.2 km/h 6.4 km/h 91 % 0.0 mm
05:01 10.9 °C 9.5 °C 1023.6 hPa East 3.2 km/h 6.4 km/h 91 % 0.0 mm
05:06 10.8 °C 9.4 °C 1023.2 hPa Calm   6.4 km/h 91 % 0.0 mm
05:11 10.8 °C 9.4 °C 1023.2 hPa Calm   6.4 km/h 91 % 0.0 mm
05:16 10.8 °C 9.4 °C 1023.6 hPa East 1.6 km/h 6.4 km/h 91 % 0.0 mm
05:22 10.8 °C 9.4 °C 1023.6 hPa Calm   6.4 km/h 91 % 0.0 mm
05:26 10.8 °C 9.4 °C 1023.6 hPa Calm   6.4 km/h 91 % 0.0 mm
05:27 10.8 °C 9.4 °C 1023.6 hPa ENE 1.6 km/h 4.8 km/h 91 % 0.0 mm
05:30 10.8 °C 9.4 °C 1023.6 hPa Calm   4.8 km/h 91 % 0.0 mm
05:37 10.7 °C 9.3 °C 1023.6 hPa Calm   4.8 km/h 91 % 0.0 mm
05:42 10.7 °C 9.3 °C 1023.6 hPa Calm   4.8 km/h 91 % 0.0 mm
05:47 10.7 °C 9.3 °C 1023.6 hPa Calm   3.2 km/h 91 % 0.0 mm
05:52 10.6 °C 9.2 °C 1023.6 hPa ENE 1.6 km/h 3.2 km/h 91 % 0.0 mm
05:57 10.6 °C 9.2 °C 1023.6 hPa Calm   3.2 km/h 91 % 0.0 mm
06:02 10.6 °C 9.2 °C 1023.9 hPa Calm   3.2 km/h 91 % 0.0 mm
06:07 10.6 °C 9.2 °C 1023.9 hPa Calm   1.6 km/h 91 % 0.0 mm
06:12 10.5 °C 9.1 °C 1023.9 hPa Calm   1.6 km/h 91 % 0.0 mm
06:17 10.5 °C 9.1 °C 1023.9 hPa Calm     91 % 0.0 mm
06:22 10.5 °C 9.1 °C 1023.9 hPa Calm     91 % 0.0 mm
06:27 10.6 °C 9.2 °C 1023.6 hPa Calm     91 % 0.0 mm
06:32 10.7 °C 9.3 °C 1023.6 hPa Calm   4.8 km/h 91 % 0.0 mm
06:37 10.7 °C 9.3 °C 1023.6 hPa Calm   4.8 km/h 91 % 0.0 mm
06:42 10.7 °C 9.3 °C 1023.6 hPa Calm   4.8 km/h 91 % 0.0 mm
06:47 10.7 °C 9.3 °C 1023.9 hPa Calm     91 % 0.0 mm
06:52 10.7 °C 9.3 °C 1023.9 hPa Calm     91 % 0.0 mm
06:57 10.6 °C 9.2 °C 1023.9 hPa Calm     91 % 0.0 mm
07:02 10.6 °C 9.2 °C 1023.9 hPa Calm     91 % 0.0 mm
07:07 10.6 °C 9.2 °C 1024.3 hPa Calm     91 % 0.0 mm
07:12 10.6 °C 9.2 °C 1024.3 hPa Calm     91 % 0.0 mm
07:17 10.4 °C 9.0 °C 1024.3 hPa Calm     91 % 0.0 mm
07:22 10.4 °C 9.0 °C 1024.3 hPa Calm     91 % 0.0 mm
07:27 10.4 °C 9.0 °C 1024.3 hPa Calm     91 % 0.0 mm
07:32 10.4 °C 9.0 °C 1024.3 hPa Calm   1.6 km/h 91 % 0.0 mm
07:37 10.5 °C 9.1 °C 1024.3 hPa East 6.4 km/h 6.4 km/h 91 % 0.0 mm
07:42 10.7 °C 9.3 °C 1024.3 hPa East 3.2 km/h 8.0 km/h 91 % 0.0 mm
07:47 10.7 °C 9.3 °C 1024.3 hPa East 3.2 km/h 8.0 km/h 91 % 0.0 mm
07:52 10.8 °C 9.6 °C 1024.3 hPa Calm   8.0 km/h 92 % 0.0 mm
07:57 10.8 °C 9.6 °C 1024.3 hPa Calm   8.0 km/h 92 % 0.0 mm
08:02 10.9 °C 9.7 °C 1024.3 hPa Calm   4.8 km/h 92 % 0.0 mm
08:03 10.9 °C 9.7 °C 1024.3 hPa East 3.2 km/h 4.8 km/h 92 % 0.0 mm
08:08 10.9 °C 9.5 °C 1024.3 hPa Calm   3.2 km/h 91 % 0.0 mm
08:13 11.1 °C 9.7 °C 1024.3 hPa Calm   3.2 km/h 91 % 0.0 mm
08:18 11.1 °C 9.8 °C 1024.6 hPa Calm   3.2 km/h 92 % 0.0 mm
08:23 11.2 °C 9.9 °C 1024.6 hPa Calm   3.2 km/h 92 % 0.0 mm
08:28 11.3 °C 9.9 °C 1024.6 hPa Calm   3.2 km/h 91 % 0.0 mm
08:33 11.3 °C 9.9 °C 1024.6 hPa East 1.6 km/h 8.0 km/h 91 % 0.0 mm
08:38 11.4 °C 10.0 °C 1024.6 hPa East 6.4 km/h 8.0 km/h 91 % 0.0 mm
08:43 11.5 °C 10.1 °C 1024.6 hPa Calm   8.0 km/h 91 % 0.0 mm
08:48 11.6 °C 10.2 °C 1024.6 hPa Calm   8.0 km/h 91 % 0.0 mm
08:50 11.6 °C 10.2 °C 1024.6 hPa East 6.4 km/h 8.0 km/h 91 % 0.0 mm
08:55 11.8 °C 10.4 °C 1024.6 hPa Calm   8.0 km/h 91 % 0.0 mm
09:00 11.8 °C 10.4 °C 1024.9 hPa East 1.6 km/h 8.0 km/h 91 % 0.0 mm
09:05 12.0 °C 10.6 °C 1024.9 hPa Calm   8.0 km/h 91 % 0.0 mm
09:10 12.1 °C 10.7 °C 1024.9 hPa East 4.8 km/h 8.0 km/h 91 % 0.0 mm
09:15 12.1 °C 10.7 °C 1024.9 hPa ESE 1.6 km/h 8.0 km/h 91 % 0.0 mm
09:20 12.2 °C 10.8 °C 1024.9 hPa ESE 11.3 km/h 11.3 km/h 91 % 0.0 mm
09:25 12.3 °C 10.9 °C 1024.9 hPa ESE 6.4 km/h 12.9 km/h 91 % 0.0 mm
09:30 12.4 °C 10.8 °C 1024.9 hPa ESE 8.0 km/h 12.9 km/h 90 % 0.0 mm
09:35 12.5 °C 10.9 °C 1024.9 hPa ESE 8.0 km/h 12.9 km/h 90 % 0.0 mm
09:45 12.7 °C 11.1 °C 1024.9 hPa SE 1.6 km/h 11.3 km/h 90 % 0.0 mm
09:50 12.8 °C 11.2 °C 1024.9 hPa SE 8.0 km/h 11.3 km/h 90 % 0.0 mm
09:55 12.9 °C 11.1 °C 1024.9 hPa ESE 3.2 km/h 9.7 km/h 89 % 0.0 mm
10:00 13.0 °C 11.2 °C 1024.9 hPa ESE 9.7 km/h 9.7 km/h 89 % 0.0 mm
10:05 13.1 °C 11.2 °C 1024.9 hPa ESE 8.0 km/h 9.7 km/h 88 % 0.0 mm
10:10 13.2 °C 11.3 °C 1024.9 hPa ESE 3.2 km/h 9.7 km/h 88 % 0.0 mm
10:15 13.4 °C 11.5 °C 1024.9 hPa SE 9.7 km/h 11.3 km/h 88 % 0.0 mm
10:20 13.7 °C 11.7 °C 1024.9 hPa ESE 8.0 km/h 12.9 km/h 88 % 0.0 mm
10:25 13.8 °C 11.7 °C 1024.9 hPa SE 1.6 km/h 12.9 km/h 87 % 0.0 mm
10:30 13.8 °C 11.7 °C 1024.9 hPa SE 1.6 km/h 12.9 km/h 87 % 0.0 mm
10:35 13.8 °C 11.7 °C 1024.9 hPa ENE 1.6 km/h 11.3 km/h 87 % 0.0 mm
10:40 13.9 °C 11.8 °C 1024.9 hPa ESE 8.0 km/h 12.9 km/h 87 % 0.0 mm
10:45 14.0 °C 11.7 °C 1024.9 hPa Calm   12.9 km/h 86 % 0.0 mm
10:50 14.0 °C 11.7 °C 1024.9 hPa ESE 6.4 km/h 12.9 km/h 86 % 0.0 mm
10:55 14.1 °C 11.8 °C 1024.9 hPa SE 1.6 km/h 12.9 km/h 86 % 0.0 mm
11:00 14.3 °C 11.8 °C 1024.9 hPa ESE 8.0 km/h 12.9 km/h 85 % 0.0 mm
11:05 14.4 °C 11.9 °C 1024.9 hPa SE 3.2 km/h 14.5 km/h 85 % 0.0 mm
11:10 14.7 °C 12.2 °C 1024.9 hPa ESE 9.7 km/h 14.5 km/h 85 % 0.0 mm
11:16 14.8 °C 11.9 °C 1024.9 hPa East 3.2 km/h 14.5 km/h 83 % 0.0 mm
Leobendorf Wetter
Datensammlung von Weather Underground - 2 mb

Script entwickelt von  Jim McMurry - jmcmurry@mwt.net Angepasst für das Template von  Wim van der Kuil - Leuven-Template.eu

Sie finden unser Wetter-Infos auch auf:

UK Metoffice

European Weather Network

Weather Underground

AWEKAS

Citizen Weather Observer Program (CWOP)

Von uns verwendete Ausrüstung:

Wetterstation
Davis VP2

Wetterprogramm
Meteohub

Davis VP2

Meteohub